Kezdőlap
METAR-TAF:

METAR-TAF

Repülőterek :

Madison, Wisconsin, Amerikai Egyesült Államok

földrajzi szélesség: 43-08-26N, földrajzi hosszúság: 089-20-43W, magasság: 262 m

Jelenlegi meteorológiai megfigyelések

A jelentés 16 perccel ezelõtt készült, 07:53 UTC
Szélcsend
Hőmérséklet 19°C
Páratartalom 83%
Légköri nyomás 1017 hPa
Látótávolság: 16.1 km
Derült ég

METAR: KMSN 070753Z AUTO 00000KT 10SM CLR 19/16 A3003 RMK AO2 SLP162 T01890156

Idő: 03:09 (08:09 UTC)

Előrejelzés

A jelentés 2 órával és 21 perccel ezelõtt készült, 05:48 UTC
Az előrejelzés 07-én 06 óra UTC és 08-én 06 óra UTC között érvényes
Keleti szél 5 kt
Látótávolság: 10 km
Szórványos felhőzet 2500 lábon
07-én 1500 órától UTC szerint
Délkeleti szél 5 kt
Látótávolság: 10 km
Szórványos felhőzet 2500 lábon
Szakadozott felhőzet 3500 lábon

TAF: KMSN 070548Z 0706/0806 08005KT P6SM SCT025 FM071500 14005KT P6SM SCT025 BKN035

Meteorológiai megfigyelések és előrejelzések több, mint 4000 repülőtéren (METAR és TAF jelentéseket).

A térképen piros és sárga pontok jelzik az elérhető meteorológiai állomásokat.

Mozgassa az egeret a pont fölött, hogy megjelenjen az állomás neve.

Azután kattintson az időjárási megfigyelések és előrejelzések megtekintéséhez.

A térkép megváltoztatása: kattintson a fekete keresztel jelölt zöld gombra ráközelítéshez, a vonallal jelölt zöld gombra távolításhoz, vagy a zöld nyilakra a szomszédos térképek eléréséhez.


METAR-TAF: